Collinsville, Illinois
Current Conditions -  °F | °C
As of 2:58 AM on Thursday 18 Dec 2014 (Local Time) from KBLV Reporting Station
Overcast Overcast  
Wind Chill: 29°   Ceiling: 7000
Heat Index: 29°   Visibility: 10mi
Dew Point: 25°   Wind: 3mph
Humidity: 83%   Direction: 100°E
Pressure: 30.28"   Gusts: NA
Location:  38.67°N, 89.98°W
Report Text: KBLV 180858Z AUTO 10003KT 10SM OVC070 M01/M04 A3028 RMK AO2 SLP261 T10151040 56008
Loading
Personal Weather Stations






























Interactive Weather Map New forecast layout! Learn more

10-Day Weather Forecast

Advertisements
Track Severe Weather on mobile